sensor_id;sensor_type;location;lat;lon;timestamp;P1;durP1;ratioP1;P2;durP2;ratioP2
17197;SDS011;8715;51.010;6.812;2022-12-05T00:00:27;235.00;;;221.13;;
17197;SDS011;8715;51.010;6.812;2022-12-05T00:02:53;233.77;;;219.63;;
17197;SDS011;8715;51.010;6.812;2022-12-05T00:05:18;234.77;;;220.88;;
17197;SDS011;8715;51.010;6.812;2022-12-05T00:07:43;240.88;;;226.75;;
17197;SDS011;8715;51.010;6.812;2022-12-05T00:10:09;242.38;;;225.93;;
17197;SDS011;8715;51.010;6.812;2022-12-05T00:12:35;244.02;;;228.20;;
17197;SDS011;8715;51.010;6.812;2022-12-05T00:15:00;231.85;;;217.80;;
17197;SDS011;8715;51.010;6.812;2022-12-05T00:17:25;237.60;;;223.57;;
17197;SDS011;8715;51.010;6.812;2022-12-05T00:19:51;232.00;;;218.03;;
17197;SDS011;8715;51.010;6.812;2022-12-05T00:22:16;222.23;;;208.53;;
17197;SDS011;8715;51.010;6.812;2022-12-05T00:24:41;235.47;;;222.07;;
17197;SDS011;8715;51.010;6.812;2022-12-05T00:27:07;233.03;;;219.43;;
17197;SDS011;8715;51.010;6.812;2022-12-05T00:29:32;240.15;;;226.20;;
17197;SDS011;8715;51.010;6.812;2022-12-05T00:31:57;235.10;;;221.57;;
17197;SDS011;8715;51.010;6.812;2022-12-05T00:34:23;238.57;;;224.45;;
17197;SDS011;8715;51.010;6.812;2022-12-05T00:36:48;248.50;;;233.70;;
17197;SDS011;8715;51.010;6.812;2022-12-05T00:39:14;239.95;;;225.80;;
17197;SDS011;8715;51.010;6.812;2022-12-05T00:41:39;228.48;;;215.05;;
17197;SDS011;8715;51.010;6.812;2022-12-05T00:44:05;225.48;;;211.48;;
17197;SDS011;8715;51.010;6.812;2022-12-05T00:46:31;230.70;;;217.40;;
17197;SDS011;8715;51.010;6.812;2022-12-05T00:48:57;236.02;;;221.90;;
17197;SDS011;8715;51.010;6.812;2022-12-05T00:51:25;220.98;;;207.95;;
17197;SDS011;8715;51.010;6.812;2022-12-05T00:53:52;241.02;;;227.25;;
17197;SDS011;8715;51.010;6.812;2022-12-05T00:56:19;238.57;;;224.27;;
17197;SDS011;8715;51.010;6.812;2022-12-05T00:58:46;233.57;;;220.10;;
17197;SDS011;8715;51.010;6.812;2022-12-05T01:01:21;238.35;;;223.70;;
17197;SDS011;8715;51.010;6.812;2022-12-05T01:03:49;238.85;;;225.23;;
17197;SDS011;8715;51.010;6.812;2022-12-05T01:06:16;235.68;;;221.65;;
17197;SDS011;8715;51.010;6.812;2022-12-05T01:08:42;224.82;;;211.00;;
17197;SDS011;8715;51.010;6.812;2022-12-05T01:11:08;234.20;;;219.93;;
17197;SDS011;8715;51.010;6.812;2022-12-05T01:13:34;230.70;;;216.77;;
17197;SDS011;8715;51.010;6.812;2022-12-05T01:15:59;231.48;;;217.70;;
17197;SDS011;8715;51.010;6.812;2022-12-05T01:18:25;243.85;;;229.40;;
17197;SDS011;8715;51.010;6.812;2022-12-05T01:20:51;235.65;;;221.85;;
17197;SDS011;8715;51.010;6.812;2022-12-05T01:23:16;228.23;;;214.65;;
17197;SDS011;8715;51.010;6.812;2022-12-05T01:25:42;232.68;;;218.13;;
17197;SDS011;8715;51.010;6.812;2022-12-05T01:28:10;228.57;;;214.65;;
17197;SDS011;8715;51.010;6.812;2022-12-05T01:30:42;225.07;;;212.70;;
17197;SDS011;8715;51.010;6.812;2022-12-05T01:33:09;225.63;;;212.18;;
17197;SDS011;8715;51.010;6.812;2022-12-05T01:35:36;238.32;;;224.15;;
17197;SDS011;8715;51.010;6.812;2022-12-05T01:38:02;232.40;;;219.18;;
17197;SDS011;8715;51.010;6.812;2022-12-05T01:40:28;233.05;;;219.13;;
17197;SDS011;8715;51.010;6.812;2022-12-05T01:42:54;230.63;;;217.43;;
17197;SDS011;8715;51.010;6.812;2022-12-05T01:45:29;240.90;;;226.47;;
17197;SDS011;8715;51.010;6.812;2022-12-05T01:47:57;230.40;;;216.57;;
17197;SDS011;8715;51.010;6.812;2022-12-05T01:50:23;223.20;;;210.25;;
17197;SDS011;8715;51.010;6.812;2022-12-05T01:52:48;233.07;;;218.85;;
17197;SDS011;8715;51.010;6.812;2022-12-05T01:55:14;233.53;;;219.63;;
17197;SDS011;8715;51.010;6.812;2022-12-05T01:57:40;232.70;;;219.20;;
17197;SDS011;8715;51.010;6.812;2022-12-05T02:00:10;230.07;;;215.88;;
17197;SDS011;8715;51.010;6.812;2022-12-05T02:02:38;232.25;;;218.25;;
17197;SDS011;8715;51.010;6.812;2022-12-05T02:05:25;226.60;;;212.98;;
17197;SDS011;8715;51.010;6.812;2022-12-05T02:07:56;238.52;;;224.43;;
17197;SDS011;8715;51.010;6.812;2022-12-05T02:10:22;240.95;;;226.98;;
17197;SDS011;8715;51.010;6.812;2022-12-05T02:12:48;233.88;;;219.82;;
17197;SDS011;8715;51.010;6.812;2022-12-05T02:23:36;218.93;;;205.73;;
17197;SDS011;8715;51.010;6.812;2022-12-05T02:26:23;219.70;;;206.23;;
17197;SDS011;8715;51.010;6.812;2022-12-05T02:28:55;223.63;;;210.98;;
17197;SDS011;8715;51.010;6.812;2022-12-05T02:31:58;227.32;;;214.25;;
17197;SDS011;8715;51.010;6.812;2022-12-05T02:37:01;247.48;;;232.90;;
17197;SDS011;8715;51.010;6.812;2022-12-05T02:42:14;243.65;;;230.00;;
17197;SDS011;8715;51.010;6.812;2022-12-05T02:44:44;227.95;;;215.07;;
17197;SDS011;8715;51.010;6.812;2022-12-05T02:47:14;226.63;;;213.15;;
17197;SDS011;8715;51.010;6.812;2022-12-05T02:49:41;231.73;;;218.18;;
17197;SDS011;8715;51.010;6.812;2022-12-05T02:52:08;224.52;;;211.63;;
17197;SDS011;8715;51.010;6.812;2022-12-05T02:54:37;224.65;;;211.45;;
17197;SDS011;8715;51.010;6.812;2022-12-05T02:57:05;223.55;;;210.30;;
17197;SDS011;8715;51.010;6.812;2022-12-05T02:59:32;235.70;;;222.55;;
17197;SDS011;8715;51.010;6.812;2022-12-05T03:01:57;225.00;;;212.10;;
17197;SDS011;8715;51.010;6.812;2022-12-05T03:04:23;217.68;;;204.18;;
17197;SDS011;8715;51.010;6.812;2022-12-05T03:07:22;218.00;;;205.35;;
17197;SDS011;8715;51.010;6.812;2022-12-05T03:09:42;226.43;;;212.63;;
17197;SDS011;8715;51.010;6.812;2022-12-05T03:12:21;232.63;;;218.70;;
17197;SDS011;8715;51.010;6.812;2022-12-05T03:14:52;222.90;;;209.63;;
17197;SDS011;8715;51.010;6.812;2022-12-05T03:17:21;219.10;;;206.32;;
17197;SDS011;8715;51.010;6.812;2022-12-05T03:19:55;223.55;;;210.35;;
17197;SDS011;8715;51.010;6.812;2022-12-05T03:24:53;274.05;;;258.98;;
17197;SDS011;8715;51.010;6.812;2022-12-05T03:27:29;210.55;;;197.90;;
17197;SDS011;8715;51.010;6.812;2022-12-05T03:30:11;216.98;;;203.05;;
17197;SDS011;8715;51.010;6.812;2022-12-05T03:32:44;228.80;;;215.90;;
17197;SDS011;8715;51.010;6.812;2022-12-05T03:35:23;231.57;;;217.27;;
17197;SDS011;8715;51.010;6.812;2022-12-05T03:46:03;211.23;;;199.05;;
17197;SDS011;8715;51.010;6.812;2022-12-05T03:48:36;218.35;;;205.40;;
17197;SDS011;8715;51.010;6.812;2022-12-05T03:51:02;232.00;;;216.70;;
17197;SDS011;8715;51.010;6.812;2022-12-05T03:53:31;218.50;;;205.35;;
17197;SDS011;8715;51.010;6.812;2022-12-05T03:56:09;214.90;;;202.20;;
17197;SDS011;8715;51.010;6.812;2022-12-05T03:58:38;204.75;;;192.82;;
17197;SDS011;8715;51.010;6.812;2022-12-05T04:01:07;222.75;;;208.93;;
17197;SDS011;8715;51.010;6.812;2022-12-05T04:03:39;213.38;;;200.38;;
17197;SDS011;8715;51.010;6.812;2022-12-05T04:06:20;215.93;;;202.95;;
17197;SDS011;8715;51.010;6.812;2022-12-05T04:08:51;201.32;;;188.88;;
17197;SDS011;8715;51.010;6.812;2022-12-05T04:11:20;218.88;;;205.57;;
17197;SDS011;8715;51.010;6.812;2022-12-05T04:13:49;209.40;;;196.88;;
17197;SDS011;8715;51.010;6.812;2022-12-05T04:22:14;207.68;;;195.50;;
17197;SDS011;8715;51.010;6.812;2022-12-05T04:24:40;213.50;;;200.47;;
17197;SDS011;8715;51.010;6.812;2022-12-05T04:27:28;191.55;;;180.02;;
17197;SDS011;8715;51.010;6.812;2022-12-05T04:30:06;211.27;;;197.05;;
17197;SDS011;8715;51.010;6.812;2022-12-05T04:35:25;215.65;;;202.63;;
17197;SDS011;8715;51.010;6.812;2022-12-05T04:38:01;201.15;;;188.45;;
17197;SDS011;8715;51.010;6.812;2022-12-05T04:40:31;200.50;;;188.13;;
17197;SDS011;8715;51.010;6.812;2022-12-05T04:43:00;222.27;;;209.60;;
17197;SDS011;8715;51.010;6.812;2022-12-05T04:45:26;208.45;;;196.45;;
17197;SDS011;8715;51.010;6.812;2022-12-05T04:47:54;202.73;;;189.95;;
17197;SDS011;8715;51.010;6.812;2022-12-05T04:52:49;241.10;;;227.13;;
17197;SDS011;8715;51.010;6.812;2022-12-05T04:55:20;201.20;;;188.02;;
17197;SDS011;8715;51.010;6.812;2022-12-05T05:05:12;201.57;;;189.50;;
17197;SDS011;8715;51.010;6.812;2022-12-05T05:07:47;194.10;;;181.63;;
17197;SDS011;8715;51.010;6.812;2022-12-05T05:10:16;215.70;;;200.85;;
17197;SDS011;8715;51.010;6.812;2022-12-05T05:12:49;204.75;;;191.63;;
17197;SDS011;8715;51.010;6.812;2022-12-05T05:15:15;220.50;;;206.82;;
17197;SDS011;8715;51.010;6.812;2022-12-05T05:17:40;205.40;;;192.82;;
17197;SDS011;8715;51.010;6.812;2022-12-05T05:20:06;211.33;;;196.23;;
17197;SDS011;8715;51.010;6.812;2022-12-05T05:22:51;199.68;;;187.57;;
17197;SDS011;8715;51.010;6.812;2022-12-05T05:25:18;226.05;;;212.77;;
17197;SDS011;8715;51.010;6.812;2022-12-05T05:27:50;204.27;;;192.25;;
17197;SDS011;8715;51.010;6.812;2022-12-05T05:30:17;204.15;;;191.23;;
17197;SDS011;8715;51.010;6.812;2022-12-05T05:32:44;207.25;;;194.68;;
17197;SDS011;8715;51.010;6.812;2022-12-05T05:35:09;225.68;;;211.73;;
17197;SDS011;8715;51.010;6.812;2022-12-05T05:37:35;203.50;;;191.13;;
17197;SDS011;8715;51.010;6.812;2022-12-05T05:40:01;222.13;;;207.90;;
17197;SDS011;8715;51.010;6.812;2022-12-05T05:42:26;213.97;;;201.90;;
17197;SDS011;8715;51.010;6.812;2022-12-05T05:44:51;201.50;;;188.63;;
17197;SDS011;8715;51.010;6.812;2022-12-05T05:47:17;207.30;;;193.93;;
17197;SDS011;8715;51.010;6.812;2022-12-05T05:49:42;203.67;;;190.90;;
17197;SDS011;8715;51.010;6.812;2022-12-05T05:52:07;203.27;;;190.47;;
17197;SDS011;8715;51.010;6.812;2022-12-05T05:54:33;229.57;;;216.53;;
17197;SDS011;8715;51.010;6.812;2022-12-05T05:56:58;200.30;;;187.97;;
17197;SDS011;8715;51.010;6.812;2022-12-05T05:59:23;194.10;;;181.10;;
17197;SDS011;8715;51.010;6.812;2022-12-05T06:01:49;199.33;;;186.43;;
17197;SDS011;8715;51.010;6.812;2022-12-05T06:04:14;205.50;;;191.77;;
17197;SDS011;8715;51.010;6.812;2022-12-05T06:06:39;228.37;;;214.40;;
17197;SDS011;8715;51.010;6.812;2022-12-05T06:09:05;204.93;;;191.80;;
17197;SDS011;8715;51.010;6.812;2022-12-05T06:11:31;192.95;;;180.13;;
17197;SDS011;8715;51.010;6.812;2022-12-05T06:13:57;192.47;;;179.80;;
17197;SDS011;8715;51.010;6.812;2022-12-05T06:16:26;187.85;;;174.50;;
17197;SDS011;8715;51.010;6.812;2022-12-05T06:18:52;190.77;;;177.50;;
17197;SDS011;8715;51.010;6.812;2022-12-05T06:21:18;202.63;;;188.73;;
17197;SDS011;8715;51.010;6.812;2022-12-05T06:23:44;211.07;;;196.80;;
17197;SDS011;8715;51.010;6.812;2022-12-05T06:26:10;197.52;;;184.38;;
17197;SDS011;8715;51.010;6.812;2022-12-05T06:28:37;182.73;;;171.10;;
17197;SDS011;8715;51.010;6.812;2022-12-05T06:31:07;200.02;;;186.27;;
17197;SDS011;8715;51.010;6.812;2022-12-05T06:33:33;194.52;;;181.35;;
17197;SDS011;8715;51.010;6.812;2022-12-05T06:36:06;192.38;;;179.15;;
17197;SDS011;8715;51.010;6.812;2022-12-05T06:38:32;195.95;;;182.45;;
17197;SDS011;8715;51.010;6.812;2022-12-05T06:40:58;194.85;;;181.48;;
17197;SDS011;8715;51.010;6.812;2022-12-05T06:43:23;210.13;;;195.70;;
17197;SDS011;8715;51.010;6.812;2022-12-05T06:45:48;196.63;;;183.00;;
17197;SDS011;8715;51.010;6.812;2022-12-05T06:48:14;187.00;;;174.53;;
17197;SDS011;8715;51.010;6.812;2022-12-05T06:50:39;202.73;;;189.00;;
17197;SDS011;8715;51.010;6.812;2022-12-05T06:53:04;189.60;;;176.53;;
17197;SDS011;8715;51.010;6.812;2022-12-05T06:55:30;183.83;;;170.87;;
17197;SDS011;8715;51.010;6.812;2022-12-05T06:57:55;183.65;;;169.82;;
17197;SDS011;8715;51.010;6.812;2022-12-05T07:00:21;196.60;;;182.57;;
17197;SDS011;8715;51.010;6.812;2022-12-05T07:03:05;180.00;;;166.80;;
17197;SDS011;8715;51.010;6.812;2022-12-05T07:05:31;179.20;;;165.30;;
17197;SDS011;8715;51.010;6.812;2022-12-05T07:07:57;186.98;;;174.15;;
17197;SDS011;8715;51.010;6.812;2022-12-05T07:10:22;189.95;;;176.52;;
17197;SDS011;8715;51.010;6.812;2022-12-05T07:12:47;194.00;;;179.35;;
17197;SDS011;8715;51.010;6.812;2022-12-05T07:15:13;173.10;;;160.50;;
17197;SDS011;8715;51.010;6.812;2022-12-05T07:17:38;195.95;;;182.68;;
17197;SDS011;8715;51.010;6.812;2022-12-05T07:20:04;192.95;;;178.15;;
17197;SDS011;8715;51.010;6.812;2022-12-05T07:22:30;176.10;;;163.63;;
17197;SDS011;8715;51.010;6.812;2022-12-05T07:24:56;181.98;;;168.73;;
17197;SDS011;8715;51.010;6.812;2022-12-05T07:27:21;182.33;;;167.83;;
17197;SDS011;8715;51.010;6.812;2022-12-05T07:29:47;203.48;;;186.02;;
17197;SDS011;8715;51.010;6.812;2022-12-05T07:32:12;204.35;;;189.35;;
17197;SDS011;8715;51.010;6.812;2022-12-05T07:34:37;196.40;;;182.82;;
17197;SDS011;8715;51.010;6.812;2022-12-05T07:37:03;195.07;;;181.90;;
17197;SDS011;8715;51.010;6.812;2022-12-05T07:39:29;193.68;;;179.88;;
17197;SDS011;8715;51.010;6.812;2022-12-05T07:41:54;192.38;;;178.20;;
17197;SDS011;8715;51.010;6.812;2022-12-05T07:44:19;182.00;;;169.00;;
17197;SDS011;8715;51.010;6.812;2022-12-05T07:46:45;182.77;;;169.13;;
17197;SDS011;8715;51.010;6.812;2022-12-05T07:49:10;189.20;;;174.33;;
17197;SDS011;8715;51.010;6.812;2022-12-05T07:51:35;181.68;;;169.25;;
17197;SDS011;8715;51.010;6.812;2022-12-05T07:54:01;188.20;;;174.40;;
17197;SDS011;8715;51.010;6.812;2022-12-05T07:56:27;192.05;;;178.00;;
17197;SDS011;8715;51.010;6.812;2022-12-05T07:58:52;181.48;;;168.48;;
17197;SDS011;8715;51.010;6.812;2022-12-05T08:03:48;188.32;;;175.00;;
17197;SDS011;8715;51.010;6.812;2022-12-05T08:06:17;183.45;;;169.70;;
17197;SDS011;8715;51.010;6.812;2022-12-05T08:08:44;184.13;;;171.13;;
17197;SDS011;8715;51.010;6.812;2022-12-05T08:11:14;194.23;;;180.93;;
17197;SDS011;8715;51.010;6.812;2022-12-05T08:13:44;177.70;;;164.63;;
17197;SDS011;8715;51.010;6.812;2022-12-05T08:16:11;192.07;;;178.65;;
17197;SDS011;8715;51.010;6.812;2022-12-05T08:18:37;191.98;;;178.98;;
17197;SDS011;8715;51.010;6.812;2022-12-05T08:21:06;193.80;;;180.60;;
17197;SDS011;8715;51.010;6.812;2022-12-05T08:26:05;177.20;;;164.43;;
17197;SDS011;8715;51.010;6.812;2022-12-05T08:28:35;192.68;;;178.65;;
17197;SDS011;8715;51.010;6.812;2022-12-05T08:31:04;199.50;;;185.73;;
17197;SDS011;8715;51.010;6.812;2022-12-05T08:33:31;190.70;;;177.10;;
17197;SDS011;8715;51.010;6.812;2022-12-05T08:35:58;197.70;;;184.53;;
17197;SDS011;8715;51.010;6.812;2022-12-05T08:38:25;196.95;;;183.57;;
17197;SDS011;8715;51.010;6.812;2022-12-05T08:40:50;204.70;;;190.70;;
17197;SDS011;8715;51.010;6.812;2022-12-05T08:43:15;206.95;;;192.88;;
17197;SDS011;8715;51.010;6.812;2022-12-05T08:45:47;193.87;;;180.77;;
17197;SDS011;8715;51.010;6.812;2022-12-05T08:48:13;198.80;;;184.80;;
17197;SDS011;8715;51.010;6.812;2022-12-05T08:50:38;198.93;;;186.07;;
17197;SDS011;8715;51.010;6.812;2022-12-05T08:53:04;199.10;;;185.90;;
17197;SDS011;8715;51.010;6.812;2022-12-05T08:55:29;208.03;;;195.37;;
17197;SDS011;8715;51.010;6.812;2022-12-05T08:57:54;196.13;;;183.53;;
17197;SDS011;8715;51.010;6.812;2022-12-05T09:00:20;193.63;;;180.00;;
17197;SDS011;8715;51.010;6.812;2022-12-05T09:02:48;209.45;;;193.63;;
17197;SDS011;8715;51.010;6.812;2022-12-05T09:05:14;194.68;;;181.43;;
17197;SDS011;8715;51.010;6.812;2022-12-05T09:07:40;188.77;;;176.98;;
17197;SDS011;8715;51.010;6.812;2022-12-05T09:10:06;208.20;;;192.00;;
17197;SDS011;8715;51.010;6.812;2022-12-05T09:12:34;209.90;;;196.30;;
17197;SDS011;8715;51.010;6.812;2022-12-05T09:15:02;209.85;;;196.48;;
17197;SDS011;8715;51.010;6.812;2022-12-05T09:17:29;200.68;;;184.07;;
17197;SDS011;8715;51.010;6.812;2022-12-05T09:19:54;204.07;;;190.70;;
17197;SDS011;8715;51.010;6.812;2022-12-05T09:22:20;198.50;;;186.30;;
17197;SDS011;8715;51.010;6.812;2022-12-05T09:24:46;201.30;;;187.73;;
17197;SDS011;8715;51.010;6.812;2022-12-05T09:27:12;203.18;;;189.43;;
17197;SDS011;8715;51.010;6.812;2022-12-05T09:29:37;240.17;;;224.60;;
17197;SDS011;8715;51.010;6.812;2022-12-05T09:32:03;212.50;;;199.77;;
17197;SDS011;8715;51.010;6.812;2022-12-05T09:34:28;197.45;;;184.40;;
17197;SDS011;8715;51.010;6.812;2022-12-05T09:36:54;192.57;;;180.00;;
17197;SDS011;8715;51.010;6.812;2022-12-05T09:39:19;197.27;;;183.90;;
17197;SDS011;8715;51.010;6.812;2022-12-05T09:55:26;185.68;;;172.05;;
17197;SDS011;8715;51.010;6.812;2022-12-05T09:57:56;218.75;;;202.13;;
17197;SDS011;8715;51.010;6.812;2022-12-05T10:00:23;221.88;;;207.10;;
17197;SDS011;8715;51.010;6.812;2022-12-05T10:13:23;205.82;;;192.00;;
17197;SDS011;8715;51.010;6.812;2022-12-05T10:15:53;190.75;;;178.25;;
17197;SDS011;8715;51.010;6.812;2022-12-05T10:21:02;193.68;;;180.27;;
17197;SDS011;8715;51.010;6.812;2022-12-05T10:26:21;201.32;;;188.15;;
17197;SDS011;8715;51.010;6.812;2022-12-05T10:28:50;200.15;;;186.70;;
17197;SDS011;8715;51.010;6.812;2022-12-05T10:31:19;203.55;;;190.90;;
17197;SDS011;8715;51.010;6.812;2022-12-05T10:33:48;204.27;;;191.35;;
17197;SDS011;8715;51.010;6.812;2022-12-05T10:36:17;209.27;;;195.27;;
17197;SDS011;8715;51.010;6.812;2022-12-05T10:38:43;215.25;;;201.23;;
17197;SDS011;8715;51.010;6.812;2022-12-05T10:41:09;206.05;;;192.57;;
17197;SDS011;8715;51.010;6.812;2022-12-05T10:43:38;209.15;;;195.63;;
17197;SDS011;8715;51.010;6.812;2022-12-05T10:46:05;206.55;;;193.68;;
17197;SDS011;8715;51.010;6.812;2022-12-05T10:48:33;218.93;;;205.35;;
17197;SDS011;8715;51.010;6.812;2022-12-05T10:51:00;205.18;;;192.38;;
17197;SDS011;8715;51.010;6.812;2022-12-05T10:53:39;205.45;;;192.55;;
17197;SDS011;8715;51.010;6.812;2022-12-05T10:59:03;209.75;;;195.10;;
17197;SDS011;8715;51.010;6.812;2022-12-05T11:01:29;215.48;;;200.07;;
17197;SDS011;8715;51.010;6.812;2022-12-05T11:03:55;209.15;;;196.23;;
17197;SDS011;8715;51.010;6.812;2022-12-05T11:06:25;231.27;;;218.20;;
17197;SDS011;8715;51.010;6.812;2022-12-05T11:08:53;212.27;;;197.95;;
17197;SDS011;8715;51.010;6.812;2022-12-05T11:11:38;203.00;;;189.43;;
17197;SDS011;8715;51.010;6.812;2022-12-05T11:14:05;216.77;;;203.52;;
17197;SDS011;8715;51.010;6.812;2022-12-05T11:16:36;223.63;;;207.45;;
17197;SDS011;8715;51.010;6.812;2022-12-05T11:21:46;210.25;;;197.18;;
17197;SDS011;8715;51.010;6.812;2022-12-05T11:24:22;189.50;;;177.07;;
17197;SDS011;8715;51.010;6.812;2022-12-05T11:26:52;203.60;;;190.63;;
17197;SDS011;8715;51.010;6.812;2022-12-05T11:29:28;196.98;;;184.48;;
17197;SDS011;8715;51.010;6.812;2022-12-05T11:31:53;203.65;;;190.82;;
17197;SDS011;8715;51.010;6.812;2022-12-05T11:34:20;197.60;;;185.03;;
17197;SDS011;8715;51.010;6.812;2022-12-05T11:36:55;204.30;;;191.40;;
17197;SDS011;8715;51.010;6.812;2022-12-05T11:39:22;207.88;;;194.38;;
17197;SDS011;8715;51.010;6.812;2022-12-05T11:44:40;203.82;;;190.43;;
17197;SDS011;8715;51.010;6.812;2022-12-05T11:52:37;202.38;;;190.05;;
17197;SDS011;8715;51.010;6.812;2022-12-05T11:55:15;213.23;;;199.77;;
17197;SDS011;8715;51.010;6.812;2022-12-05T11:57:53;229.98;;;215.70;;
17197;SDS011;8715;51.010;6.812;2022-12-05T12:11:28;216.95;;;203.65;;
17197;SDS011;8715;51.010;6.812;2022-12-05T12:25:19;205.30;;;192.63;;
17197;SDS011;8715;51.010;6.812;2022-12-05T12:30:42;205.93;;;193.13;;
17197;SDS011;8715;51.010;6.812;2022-12-05T12:33:25;224.00;;;209.43;;
17197;SDS011;8715;51.010;6.812;2022-12-05T12:47:01;211.95;;;199.60;;
17197;SDS011;8715;51.010;6.812;2022-12-05T12:52:25;230.43;;;216.82;;
17197;SDS011;8715;51.010;6.812;2022-12-05T13:08:15;223.60;;;209.57;;
17197;SDS011;8715;51.010;6.812;2022-12-05T13:10:46;221.63;;;206.85;;
17197;SDS011;8715;51.010;6.812;2022-12-05T13:13:15;210.05;;;197.10;;
17197;SDS011;8715;51.010;6.812;2022-12-05T13:18:13;217.40;;;203.52;;
17197;SDS011;8715;51.010;6.812;2022-12-05T13:20:41;211.43;;;198.65;;
17197;SDS011;8715;51.010;6.812;2022-12-05T13:23:10;207.88;;;194.98;;
17197;SDS011;8715;51.010;6.812;2022-12-05T13:25:37;220.98;;;207.75;;
17197;SDS011;8715;51.010;6.812;2022-12-05T13:28:04;228.55;;;214.40;;
17197;SDS011;8715;51.010;6.812;2022-12-05T13:30:32;223.02;;;209.00;;
17197;SDS011;8715;51.010;6.812;2022-12-05T13:33:17;206.98;;;194.15;;
17197;SDS011;8715;51.010;6.812;2022-12-05T13:35:49;227.25;;;213.68;;
17197;SDS011;8715;51.010;6.812;2022-12-05T13:38:37;202.93;;;190.93;;
17197;SDS011;8715;51.010;6.812;2022-12-05T13:41:22;212.63;;;199.63;;
17197;SDS011;8715;51.010;6.812;2022-12-05T13:44:26;208.57;;;196.15;;
17197;SDS011;8715;51.010;6.812;2022-12-05T13:46:54;217.50;;;204.68;;
17197;SDS011;8715;51.010;6.812;2022-12-05T13:49:24;215.55;;;202.10;;
17197;SDS011;8715;51.010;6.812;2022-12-05T13:51:54;212.38;;;199.90;;
17197;SDS011;8715;51.010;6.812;2022-12-05T13:54:41;206.95;;;193.63;;
17197;SDS011;8715;51.010;6.812;2022-12-05T13:57:58;210.15;;;197.65;;
17197;SDS011;8715;51.010;6.812;2022-12-05T14:15:42;205.70;;;193.25;;
17197;SDS011;8715;51.010;6.812;2022-12-05T14:26:50;206.48;;;193.70;;
17197;SDS011;8715;51.010;6.812;2022-12-05T14:30:10;209.80;;;197.55;;
17197;SDS011;8715;51.010;6.812;2022-12-05T14:32:30;200.35;;;188.85;;
17197;SDS011;8715;51.010;6.812;2022-12-05T14:40:25;205.20;;;193.07;;
17197;SDS011;8715;51.010;6.812;2022-12-05T14:47:54;207.95;;;195.98;;
17197;SDS011;8715;51.010;6.812;2022-12-05T14:50:41;203.43;;;191.13;;
17197;SDS011;8715;51.010;6.812;2022-12-05T14:55:42;208.45;;;195.75;;
17197;SDS011;8715;51.010;6.812;2022-12-05T14:58:11;198.07;;;185.80;;
17197;SDS011;8715;51.010;6.812;2022-12-05T15:00:41;209.13;;;195.80;;
17197;SDS011;8715;51.010;6.812;2022-12-05T15:03:08;201.05;;;188.80;;
17197;SDS011;8715;51.010;6.812;2022-12-05T15:08:10;185.90;;;174.13;;
17197;SDS011;8715;51.010;6.812;2022-12-05T15:10:38;196.43;;;183.68;;
17197;SDS011;8715;51.010;6.812;2022-12-05T15:13:09;194.55;;;182.40;;
17197;SDS011;8715;51.010;6.812;2022-12-05T15:18:13;221.70;;;207.98;;
17197;SDS011;8715;51.010;6.812;2022-12-05T15:26:03;195.40;;;183.25;;
17197;SDS011;8715;51.010;6.812;2022-12-05T15:28:30;196.32;;;183.48;;
17197;SDS011;8715;51.010;6.812;2022-12-05T15:30:55;199.10;;;187.20;;
17197;SDS011;8715;51.010;6.812;2022-12-05T15:33:21;189.65;;;177.88;;
17197;SDS011;8715;51.010;6.812;2022-12-05T15:35:47;203.10;;;190.57;;
17197;SDS011;8715;51.010;6.812;2022-12-05T15:38:18;190.80;;;179.15;;
17197;SDS011;8715;51.010;6.812;2022-12-05T15:40:47;200.80;;;189.45;;
17197;SDS011;8715;51.010;6.812;2022-12-05T15:43:29;191.27;;;178.85;;
17197;SDS011;8715;51.010;6.812;2022-12-05T15:46:05;191.63;;;180.38;;
17197;SDS011;8715;51.010;6.812;2022-12-05T15:48:44;206.75;;;194.00;;
17197;SDS011;8715;51.010;6.812;2022-12-05T15:51:09;206.25;;;193.18;;
17197;SDS011;8715;51.010;6.812;2022-12-05T15:53:36;203.90;;;191.23;;
17197;SDS011;8715;51.010;6.812;2022-12-05T15:56:08;206.27;;;193.57;;
17197;SDS011;8715;51.010;6.812;2022-12-05T15:58:42;195.68;;;183.00;;
17197;SDS011;8715;51.010;6.812;2022-12-05T16:01:20;197.93;;;185.18;;
17197;SDS011;8715;51.010;6.812;2022-12-05T16:03:57;198.38;;;186.02;;
17197;SDS011;8715;51.010;6.812;2022-12-05T16:06:28;196.05;;;184.68;;
17197;SDS011;8715;51.010;6.812;2022-12-05T16:08:56;195.43;;;183.45;;
17197;SDS011;8715;51.010;6.812;2022-12-05T16:11:23;193.80;;;181.55;;
17197;SDS011;8715;51.010;6.812;2022-12-05T16:13:50;189.50;;;178.05;;
17197;SDS011;8715;51.010;6.812;2022-12-05T16:18:52;189.52;;;177.65;;
17197;SDS011;8715;51.010;6.812;2022-12-05T16:21:32;194.32;;;182.77;;
17197;SDS011;8715;51.010;6.812;2022-12-05T16:24:19;186.07;;;174.25;;
17197;SDS011;8715;51.010;6.812;2022-12-05T16:26:58;193.00;;;180.70;;
17197;SDS011;8715;51.010;6.812;2022-12-05T16:29:34;199.90;;;187.27;;
17197;SDS011;8715;51.010;6.812;2022-12-05T16:32:00;197.77;;;185.27;;
17197;SDS011;8715;51.010;6.812;2022-12-05T16:34:28;196.65;;;184.35;;
17197;SDS011;8715;51.010;6.812;2022-12-05T16:36:54;192.20;;;180.35;;
17197;SDS011;8715;51.010;6.812;2022-12-05T16:39:20;216.15;;;198.35;;
17197;SDS011;8715;51.010;6.812;2022-12-05T16:41:46;195.35;;;183.18;;
17197;SDS011;8715;51.010;6.812;2022-12-05T16:46:56;191.13;;;178.07;;
17197;SDS011;8715;51.010;6.812;2022-12-05T16:49:34;185.25;;;173.57;;
17197;SDS011;8715;51.010;6.812;2022-12-05T16:52:02;186.88;;;175.07;;
17197;SDS011;8715;51.010;6.812;2022-12-05T16:54:37;199.93;;;185.23;;
17197;SDS011;8715;51.010;6.812;2022-12-05T16:57:03;197.88;;;185.50;;
17197;SDS011;8715;51.010;6.812;2022-12-05T17:01:58;202.20;;;190.20;;
17197;SDS011;8715;51.010;6.812;2022-12-05T17:04:25;191.77;;;179.55;;
17197;SDS011;8715;51.010;6.812;2022-12-05T17:06:50;196.75;;;185.35;;
17197;SDS011;8715;51.010;6.812;2022-12-05T17:09:15;198.43;;;186.17;;
17197;SDS011;8715;51.010;6.812;2022-12-05T17:11:41;208.02;;;191.77;;
17197;SDS011;8715;51.010;6.812;2022-12-05T17:14:12;198.05;;;186.02;;
17197;SDS011;8715;51.010;6.812;2022-12-05T17:16:38;186.63;;;174.85;;
17197;SDS011;8715;51.010;6.812;2022-12-05T17:19:04;193.15;;;180.88;;
17197;SDS011;8715;51.010;6.812;2022-12-05T17:21:30;179.03;;;167.50;;
17197;SDS011;8715;51.010;6.812;2022-12-05T17:23:57;191.63;;;179.30;;
17197;SDS011;8715;51.010;6.812;2022-12-05T17:26:22;193.45;;;181.75;;
17197;SDS011;8715;51.010;6.812;2022-12-05T17:28:48;197.18;;;185.10;;
17197;SDS011;8715;51.010;6.812;2022-12-05T17:31:14;196.90;;;183.88;;
17197;SDS011;8715;51.010;6.812;2022-12-05T17:33:41;201.15;;;188.55;;
17197;SDS011;8715;51.010;6.812;2022-12-05T17:36:10;190.35;;;178.70;;
17197;SDS011;8715;51.010;6.812;2022-12-05T17:38:35;182.95;;;171.70;;
17197;SDS011;8715;51.010;6.812;2022-12-05T17:41:01;200.10;;;188.00;;